createdAt,value
2022-10-26T00:00:36.961Z,9.35
2022-10-26T00:01:38.955Z,9.63
2022-10-26T00:02:41.377Z,8.53
2022-10-26T00:03:44.712Z,9.43
2022-10-26T00:04:46.560Z,9.18
2022-10-26T00:05:48.424Z,9.80
2022-10-26T00:06:50.194Z,9.15
2022-10-26T00:07:52.051Z,9.18
2022-10-26T00:08:55.644Z,8.80
2022-10-26T00:09:57.467Z,9.35
2022-10-26T00:10:59.272Z,9.18
2022-10-26T00:12:01.459Z,8.88
2022-10-26T00:13:04.519Z,8.40
2022-10-26T00:14:06.478Z,8.70
2022-10-26T00:15:09.466Z,8.32
2022-10-26T00:16:21.468Z,9.20
2022-10-26T00:17:23.357Z,9.35
2022-10-26T00:18:25.218Z,8.70
2022-10-26T00:19:27.526Z,8.02
2022-10-26T00:20:29.382Z,9.00
2022-10-26T00:21:31.326Z,8.15
2022-10-26T00:22:33.134Z,8.13
2022-10-26T00:23:35.227Z,7.70
2022-10-26T00:24:36.976Z,9.15
2022-10-26T00:25:39.006Z,8.15
2022-10-26T00:26:40.984Z,8.13
2022-10-26T00:27:42.815Z,8.93
2022-10-26T00:28:44.714Z,9.02
2022-10-26T00:29:46.551Z,9.95
2022-10-26T00:30:48.380Z,10.30
2022-10-26T00:31:50.266Z,8.93
2022-10-26T00:32:52.147Z,9.48
2022-10-26T00:33:55.279Z,8.40
2022-10-26T00:34:57.122Z,9.38
2022-10-26T00:35:59.058Z,9.30
2022-10-26T00:37:00.853Z,8.57
2022-10-26T00:38:02.658Z,8.95
2022-10-26T00:39:04.782Z,9.07
2022-10-26T00:40:07.161Z,8.93
2022-10-26T00:41:14.501Z,8.48
2022-10-26T00:42:21.377Z,8.13
2022-10-26T00:43:23.150Z,9.50
2022-10-26T00:44:43.141Z,8.43
2022-10-26T00:45:45.685Z,9.13
2022-10-26T00:46:47.469Z,8.80
2022-10-26T00:48:07.973Z,8.50
2022-10-26T00:49:16.958Z,8.73
2022-10-26T00:50:24.978Z,8.25
2022-10-26T00:51:39.064Z,8.13
2022-10-26T00:52:41.942Z,8.63
2022-10-26T00:53:44.475Z,7.85
2022-10-26T00:54:46.429Z,8.57
2022-10-26T00:55:51.146Z,8.50
2022-10-26T00:56:55.286Z,9.65
2022-10-26T00:57:57.419Z,9.02
2022-10-26T00:59:03.939Z,8.90
2022-10-26T01:00:07.757Z,9.50
2022-10-26T01:01:09.731Z,8.95
2022-10-26T01:02:12.140Z,8.65
2022-10-26T01:03:15.179Z,9.65
2022-10-26T01:04:18.408Z,8.40
2022-10-26T01:05:20.817Z,7.95
2022-10-26T01:06:22.989Z,7.87
2022-10-26T01:07:26.286Z,8.75
2022-10-26T01:08:29.718Z,7.90
2022-10-26T01:09:32.946Z,8.85
2022-10-26T01:10:36.951Z,9.23
2022-10-26T01:11:38.903Z,9.20
2022-10-26T01:12:41.079Z,7.95
2022-10-26T01:13:46.172Z,8.52
2022-10-26T01:14:48.255Z,9.05
2022-10-26T01:16:12.024Z,8.35
2022-10-26T01:17:44.135Z,8.77
2022-10-26T01:19:21.240Z,8.27
2022-10-26T01:20:47.608Z,6.97
2022-10-26T01:22:00.280Z,7.78
2022-10-26T01:23:02.429Z,7.75
2022-10-26T01:24:33.521Z,8.27
2022-10-26T01:25:51.650Z,8.10
2022-10-26T01:27:13.736Z,9.27
2022-10-26T01:28:33.203Z,7.78
2022-10-26T01:29:52.092Z,7.05
2022-10-26T01:30:55.974Z,8.00
2022-10-26T01:32:04.905Z,8.68
2022-10-26T01:33:35.118Z,8.07
2022-10-26T01:35:01.351Z,7.13
2022-10-26T01:36:05.765Z,7.90
2022-10-26T01:37:12.247Z,8.05
2022-10-26T01:38:19.758Z,7.55
2022-10-26T01:39:29.452Z,7.57
2022-10-26T01:40:36.339Z,7.55
2022-10-26T01:41:50.214Z,7.20
2022-10-26T01:42:54.915Z,8.03
2022-10-26T01:44:01.199Z,6.97
2022-10-26T01:45:07.263Z,7.57
2022-10-26T01:46:11.691Z,7.68
2022-10-26T01:47:16.031Z,7.38
2022-10-26T01:48:20.667Z,8.32
2022-10-26T01:49:26.628Z,7.45
2022-10-26T01:50:31.042Z,7.47
2022-10-26T01:51:34.711Z,7.30
2022-10-26T01:52:36.515Z,7.53
2022-10-26T01:53:46.721Z,6.73
2022-10-26T01:54:48.780Z,7.32
2022-10-26T01:55:53.092Z,7.47
2022-10-26T01:57:02.100Z,8.13
2022-10-26T01:58:29.205Z,7.75
2022-10-26T01:59:46.919Z,6.95
2022-10-26T02:01:30.290Z,6.68
2022-10-26T02:02:37.919Z,6.43
2022-10-26T02:03:42.277Z,6.70
2022-10-26T02:05:05.174Z,6.47
2022-10-26T02:06:19.272Z,6.83
2022-10-26T02:07:34.778Z,6.95
2022-10-26T02:09:03.656Z,6.50
2022-10-26T02:10:30.041Z,7.72
2022-10-26T02:11:46.829Z,7.03
2022-10-26T02:13:10.676Z,6.95
2022-10-26T02:14:41.341Z,6.72
2022-10-26T02:16:02.672Z,6.43
2022-10-26T02:17:38.473Z,6.55
2022-10-26T02:18:53.146Z,6.95
2022-10-26T02:20:00.266Z,6.50
2022-10-26T02:21:14.958Z,7.25
2022-10-26T02:22:28.896Z,7.10
2022-10-26T02:23:33.852Z,6.72
2022-10-26T02:24:37.730Z,6.63
2022-10-26T02:25:47.664Z,7.10
2022-10-26T02:26:51.320Z,7.18
2022-10-26T02:28:02.181Z,7.53
2022-10-26T02:29:08.907Z,6.72
2022-10-26T02:30:12.423Z,6.47
2022-10-26T02:31:15.692Z,7.87
2022-10-26T02:32:19.688Z,7.32
2022-10-26T02:33:24.296Z,6.47
2022-10-26T02:34:28.763Z,6.85
2022-10-26T02:35:35.487Z,6.90
2022-10-26T02:36:42.266Z,6.93
2022-10-26T02:37:46.950Z,6.88
2022-10-26T02:38:51.699Z,6.28
2022-10-26T02:39:55.552Z,6.63
2022-10-26T02:40:59.997Z,6.93
2022-10-26T02:42:04.896Z,6.03
2022-10-26T02:43:11.001Z,6.00
2022-10-26T02:44:23.958Z,7.90
2022-10-26T02:45:34.781Z,7.10
2022-10-26T02:46:37.068Z,6.50
2022-10-26T02:47:39.057Z,6.28
2022-10-26T02:48:41.463Z,6.63
2022-10-26T02:49:44.172Z,6.20
2022-10-26T02:51:12.389Z,6.32
2022-10-26T02:52:21.477Z,6.60
2022-10-26T02:53:52.816Z,5.50
2022-10-26T02:55:04.969Z,5.70
2022-10-26T02:56:28.469Z,5.70
2022-10-26T02:57:41.592Z,5.72
2022-10-26T02:58:49.195Z,5.95
2022-10-26T02:59:52.500Z,6.63
2022-10-26T03:00:54.563Z,6.32
2022-10-26T03:01:57.001Z,5.93
2022-10-26T03:02:59.678Z,6.10
2022-10-26T03:04:01.720Z,6.45
2022-10-26T03:05:25.439Z,6.50
2022-10-26T03:06:27.704Z,6.63
2022-10-26T03:07:29.495Z,6.22
2022-10-26T03:08:31.371Z,6.03
2022-10-26T03:09:33.305Z,6.57
2022-10-26T03:10:42.617Z,6.75
2022-10-26T03:11:44.655Z,6.28
2022-10-26T03:12:46.860Z,5.82
2022-10-26T03:13:48.894Z,6.38
2022-10-26T03:14:50.789Z,6.95
2022-10-26T03:15:56.840Z,6.47
2022-10-26T03:16:58.857Z,6.20
2022-10-26T03:18:00.779Z,6.30
2022-10-26T03:19:02.553Z,6.78
2022-10-26T03:20:05.252Z,6.53
2022-10-26T03:21:07.193Z,6.32
2022-10-26T03:22:08.989Z,6.18
2022-10-26T03:23:11.115Z,6.45
2022-10-26T03:24:14.450Z,6.72
2022-10-26T03:25:16.840Z,5.95
2022-10-26T03:26:18.638Z,6.80
2022-10-26T03:27:20.468Z,7.28
2022-10-26T03:28:22.450Z,5.95
2022-10-26T03:29:24.336Z,6.95
2022-10-26T03:30:27.553Z,6.78
2022-10-26T03:31:29.355Z,7.18
2022-10-26T03:32:31.271Z,6.97
2022-10-26T03:33:33.051Z,7.50
2022-10-26T03:34:35.012Z,7.25
2022-10-26T03:35:36.943Z,6.78
2022-10-26T03:36:38.844Z,7.40
2022-10-26T03:37:40.617Z,6.72
2022-10-26T03:38:42.396Z,7.18
2022-10-26T03:39:44.502Z,6.88
2022-10-26T03:40:48.671Z,6.45
2022-10-26T03:41:50.577Z,6.28
2022-10-26T03:42:52.737Z,6.45
2022-10-26T03:43:54.957Z,7.22
2022-10-26T03:44:56.757Z,6.10
2022-10-26T03:45:58.659Z,6.00
2022-10-26T03:47:00.599Z,6.70
2022-10-26T03:48:02.405Z,6.78
2022-10-26T03:49:04.703Z,6.85
2022-10-26T03:50:06.802Z,6.18
2022-10-26T03:51:08.781Z,6.88
2022-10-26T03:52:10.580Z,6.43
2022-10-26T03:53:12.756Z,6.45
2022-10-26T03:54:14.692Z,6.82
2022-10-26T03:55:16.506Z,7.05
2022-10-26T03:56:18.458Z,6.35
2022-10-26T03:57:20.339Z,6.50
2022-10-26T03:58:22.474Z,7.28
2022-10-26T03:59:24.881Z,6.40
2022-10-26T04:00:26.918Z,6.40
2022-10-26T04:01:29.570Z,6.25
2022-10-26T04:02:31.345Z,7.28
2022-10-26T04:03:33.069Z,6.32
2022-10-26T04:04:34.915Z,6.60
2022-10-26T04:05:36.904Z,6.75
2022-10-26T04:06:38.711Z,7.13
2022-10-26T04:07:40.551Z,6.37
2022-10-26T04:08:42.323Z,6.78
2022-10-26T04:09:44.229Z,6.30
2022-10-26T04:10:47.440Z,6.97
2022-10-26T04:11:49.223Z,6.03
2022-10-26T04:12:51.082Z,6.50
2022-10-26T04:13:53.092Z,6.28
2022-10-26T04:14:57.898Z,6.75
2022-10-26T04:15:59.900Z,6.13
2022-10-26T04:17:01.732Z,6.45
2022-10-26T04:18:04.084Z,6.47
2022-10-26T04:19:05.929Z,6.28
2022-10-26T04:20:08.966Z,6.13
2022-10-26T04:21:10.728Z,6.43
2022-10-26T04:22:12.733Z,7.38
2022-10-26T04:23:16.687Z,6.72
2022-10-26T04:24:18.440Z,6.88
2022-10-26T04:25:20.207Z,7.45
2022-10-26T04:26:22.003Z,7.95
2022-10-26T04:27:23.864Z,5.97
2022-10-26T04:28:25.776Z,6.37
2022-10-26T04:29:27.532Z,6.22
2022-10-26T04:30:29.998Z,6.95
2022-10-26T04:31:31.934Z,6.97
2022-10-26T04:32:34.067Z,6.55
2022-10-26T04:33:35.868Z,6.85
2022-10-26T04:34:37.624Z,6.32
2022-10-26T04:35:39.446Z,7.18
2022-10-26T04:36:41.313Z,6.85
2022-10-26T04:37:43.115Z,7.63
2022-10-26T04:38:45.515Z,6.37
2022-10-26T04:39:47.379Z,6.53
2022-10-26T04:40:51.379Z,6.45
2022-10-26T04:41:54.404Z,6.97
2022-10-26T04:42:56.443Z,6.50
2022-10-26T04:43:58.349Z,6.75
2022-10-26T04:45:00.715Z,6.50
2022-10-26T04:46:02.442Z,6.72
2022-10-26T04:47:04.348Z,7.50
2022-10-26T04:48:09.619Z,7.28
2022-10-26T04:49:11.717Z,6.83
2022-10-26T04:50:14.428Z,6.47
2022-10-26T04:51:16.470Z,6.78
2022-10-26T04:52:18.280Z,6.30
2022-10-26T04:53:20.079Z,6.53
2022-10-26T04:54:22.062Z,6.03
2022-10-26T04:55:23.921Z,7.20
2022-10-26T04:56:25.756Z,6.78
2022-10-26T04:57:27.631Z,6.40
2022-10-26T04:58:29.975Z,6.35
2022-10-26T04:59:32.734Z,6.80
2022-10-26T05:00:35.235Z,6.70
2022-10-26T05:01:37.152Z,6.88
2022-10-26T05:02:39.008Z,5.85
2022-10-26T05:03:40.807Z,6.35
2022-10-26T05:04:42.734Z,7.57
2022-10-26T05:05:45.880Z,6.35
2022-10-26T05:06:47.730Z,6.95
2022-10-26T05:07:55.645Z,6.18
2022-10-26T05:08:57.431Z,6.13
2022-10-26T05:09:59.313Z,5.93
2022-10-26T05:11:01.104Z,5.32
2022-10-26T05:12:03.107Z,6.03
2022-10-26T05:13:05.152Z,6.28
2022-10-26T05:14:07.018Z,6.43
2022-10-26T05:15:12.032Z,6.28
2022-10-26T05:16:14.870Z,6.65
2022-10-26T05:17:16.753Z,5.50
2022-10-26T05:18:18.596Z,6.03
2022-10-26T05:19:20.712Z,7.13
2022-10-26T05:20:28.966Z,6.23
2022-10-26T05:21:31.248Z,5.25
2022-10-26T05:22:33.172Z,5.93
2022-10-26T05:23:34.992Z,6.53
2022-10-26T05:24:36.920Z,5.68
2022-10-26T05:25:38.904Z,6.35
2022-10-26T05:26:40.841Z,5.50
2022-10-26T05:27:42.658Z,6.15
2022-10-26T05:28:44.509Z,5.95
2022-10-26T05:29:46.455Z,6.45
2022-10-26T05:30:48.308Z,6.37
2022-10-26T05:31:50.247Z,6.20
2022-10-26T05:32:56.339Z,6.43
2022-10-26T05:33:58.148Z,6.13
2022-10-26T05:35:00.707Z,6.18
2022-10-26T05:36:02.578Z,6.28
2022-10-26T05:37:04.420Z,6.38
2022-10-26T05:38:12.290Z,6.13
2022-10-26T05:39:14.072Z,6.97
2022-10-26T05:40:17.274Z,6.35
2022-10-26T05:41:19.179Z,6.30
2022-10-26T05:42:21.125Z,6.80
2022-10-26T05:43:27.460Z,5.85
2022-10-26T05:44:29.439Z,6.88
2022-10-26T05:45:31.359Z,6.47
2022-10-26T05:46:33.257Z,6.30
2022-10-26T05:47:39.700Z,7.00
2022-10-26T05:48:41.613Z,6.78
2022-10-26T05:49:43.535Z,5.93
2022-10-26T05:50:45.763Z,6.80
2022-10-26T05:51:47.635Z,6.40
2022-10-26T05:52:51.093Z,6.55
2022-10-26T05:53:55.782Z,6.25
2022-10-26T05:54:57.802Z,6.18
2022-10-26T05:55:59.968Z,6.32
2022-10-26T05:57:02.183Z,6.10
2022-10-26T05:58:04.388Z,5.75
2022-10-26T05:59:13.281Z,6.53
2022-10-26T06:00:18.776Z,6.15
2022-10-26T06:01:23.732Z,5.75
2022-10-26T06:02:59.406Z,5.70
2022-10-26T06:04:10.288Z,5.85
2022-10-26T06:05:20.874Z,6.28
2022-10-26T06:06:23.212Z,5.85
2022-10-26T06:07:25.273Z,5.90
2022-10-26T06:08:28.952Z,6.75
2022-10-26T06:09:31.065Z,6.50
2022-10-26T06:10:33.355Z,5.70
2022-10-26T06:11:35.493Z,6.43
2022-10-26T06:12:37.829Z,5.18
2022-10-26T06:13:39.840Z,5.10
2022-10-26T06:14:42.187Z,4.75
2022-10-26T06:16:16.354Z,6.15
2022-10-26T06:17:42.696Z,5.85
2022-10-26T06:19:21.346Z,5.38
2022-10-26T06:20:36.973Z,5.10
2022-10-26T06:21:47.614Z,4.32
2022-10-26T06:23:11.921Z,5.03
2022-10-26T06:24:42.938Z,5.63
2022-10-26T06:26:16.880Z,6.28
2022-10-26T06:27:33.538Z,5.37
2022-10-26T06:29:03.861Z,5.40
2022-10-26T06:30:10.295Z,5.32
2022-10-26T06:31:14.464Z,5.32
2022-10-26T06:32:17.585Z,5.13
2022-10-26T06:33:35.516Z,5.20
2022-10-26T06:34:43.190Z,4.90
2022-10-26T06:36:21.927Z,4.60
2022-10-26T06:37:24.991Z,5.18
2022-10-26T06:38:29.082Z,5.40
2022-10-26T06:39:35.619Z,5.00
2022-10-26T06:40:42.544Z,5.22
2022-10-26T06:41:44.837Z,5.20
2022-10-26T06:42:47.008Z,5.22
2022-10-26T06:43:49.693Z,5.30
2022-10-26T06:44:52.568Z,5.90
2022-10-26T06:46:05.227Z,5.05
2022-10-26T06:47:18.651Z,5.40
2022-10-26T06:48:28.270Z,5.45
2022-10-26T06:49:50.063Z,5.90
2022-10-26T06:50:53.436Z,5.67
2022-10-26T06:52:13.125Z,6.60
2022-10-26T06:53:43.993Z,5.28
2022-10-26T06:54:51.471Z,5.75
2022-10-26T06:55:53.667Z,5.82
2022-10-26T06:56:56.167Z,6.18
2022-10-26T06:57:58.310Z,4.50
2022-10-26T06:59:08.175Z,6.00
2022-10-26T07:00:25.460Z,5.28
2022-10-26T07:01:27.450Z,5.93
2022-10-26T07:02:30.139Z,5.40
2022-10-26T07:03:32.106Z,5.80
2022-10-26T07:04:33.867Z,5.60
2022-10-26T07:05:35.817Z,5.28
2022-10-26T07:06:39.334Z,4.80
2022-10-26T07:07:47.115Z,6.05
2022-10-26T07:08:49.174Z,5.43
2022-10-26T07:09:51.208Z,5.90
2022-10-26T07:10:52.998Z,5.65
2022-10-26T07:11:55.157Z,5.88
2022-10-26T07:12:57.310Z,5.73
2022-10-26T07:13:59.324Z,6.25
2022-10-26T07:15:01.216Z,5.28
2022-10-26T07:16:03.400Z,5.53
2022-10-26T07:17:05.757Z,5.32
2022-10-26T07:18:08.460Z,6.68
2022-10-26T07:19:10.421Z,5.15
2022-10-26T07:20:13.510Z,5.15
2022-10-26T07:21:15.303Z,5.40
2022-10-26T07:22:17.177Z,5.47
2022-10-26T07:23:19.223Z,5.77
2022-10-26T07:24:23.266Z,4.78
2022-10-26T07:25:26.814Z,4.97
2022-10-26T07:26:28.723Z,5.57
2022-10-26T07:27:30.695Z,5.63
2022-10-26T07:28:34.023Z,5.70
2022-10-26T07:29:36.372Z,6.05
2022-10-26T07:30:39.668Z,6.63
2022-10-26T07:31:41.736Z,5.97
2022-10-26T07:32:44.175Z,6.70
2022-10-26T07:33:46.346Z,5.33
2022-10-26T07:34:48.412Z,5.40
2022-10-26T07:35:50.326Z,5.65
2022-10-26T07:36:52.844Z,5.80
2022-10-26T07:37:58.933Z,5.78
2022-10-26T07:39:00.856Z,5.13
2022-10-26T07:40:06.553Z,5.18
2022-10-26T07:41:08.947Z,6.30
2022-10-26T07:42:10.890Z,5.47
2022-10-26T07:43:12.767Z,6.78
2022-10-26T07:44:14.694Z,5.97
2022-10-26T07:45:16.693Z,6.28
2022-10-26T07:46:18.575Z,5.65
2022-10-26T07:47:20.455Z,5.53
2022-10-26T07:48:22.308Z,5.60
2022-10-26T07:49:27.546Z,5.85
2022-10-26T07:50:29.959Z,5.25
2022-10-26T07:51:31.742Z,6.05
2022-10-26T07:52:35.846Z,5.70
2022-10-26T07:53:37.731Z,5.13
2022-10-26T07:54:39.699Z,5.47
2022-10-26T07:55:41.649Z,5.70
2022-10-26T07:56:43.688Z,5.00
2022-10-26T07:57:46.083Z,4.97
2022-10-26T07:58:53.318Z,5.53
2022-10-26T07:59:55.276Z,6.65
2022-10-26T08:00:57.464Z,4.78
2022-10-26T08:01:59.377Z,6.18
2022-10-26T08:03:03.392Z,5.78
2022-10-26T08:04:05.172Z,5.80
2022-10-26T08:05:07.509Z,6.17
2022-10-26T08:06:10.654Z,5.78
2022-10-26T08:07:12.659Z,7.07
2022-10-26T08:08:14.944Z,5.78
2022-10-26T08:09:16.909Z,5.97
2022-10-26T08:10:19.456Z,5.97
2022-10-26T08:11:21.611Z,5.65
2022-10-26T08:12:23.430Z,5.38
2022-10-26T08:13:25.839Z,5.90
2022-10-26T08:14:27.700Z,5.78
2022-10-26T08:15:29.462Z,5.77
2022-10-26T08:16:31.760Z,5.38
2022-10-26T08:17:33.518Z,5.50
2022-10-26T08:18:35.347Z,6.18
2022-10-26T08:19:37.304Z,5.88
2022-10-26T08:20:39.237Z,6.03
2022-10-26T08:21:40.996Z,5.45
2022-10-26T08:22:42.799Z,6.00
2022-10-26T08:23:44.864Z,5.93
2022-10-26T08:24:46.905Z,7.22
2022-10-26T08:25:48.889Z,5.90
2022-10-26T08:26:50.722Z,6.32
2022-10-26T08:27:52.724Z,6.63
2022-10-26T08:28:54.625Z,4.97
2022-10-26T08:29:56.395Z,5.95
2022-10-26T08:30:58.519Z,6.25
2022-10-26T08:32:00.504Z,5.68
2022-10-26T08:33:04.665Z,6.22
2022-10-26T08:34:07.254Z,6.63
2022-10-26T08:35:10.351Z,6.60
2022-10-26T08:36:12.976Z,5.47
2022-10-26T08:37:14.838Z,5.93
2022-10-26T08:38:16.670Z,5.53
2022-10-26T08:39:18.513Z,6.30
2022-10-26T08:40:26.370Z,6.35
2022-10-26T08:41:47.441Z,5.90
2022-10-26T08:42:53.068Z,4.90
2022-10-26T08:44:02.516Z,5.70
2022-10-26T08:45:23.201Z,6.03
2022-10-26T08:46:44.817Z,5.97
2022-10-26T08:47:50.900Z,5.10
2022-10-26T08:49:00.854Z,4.90
2022-10-26T08:50:29.694Z,5.97
2022-10-26T08:51:37.621Z,5.93
2022-10-26T08:53:06.407Z,5.50
2022-10-26T08:54:31.866Z,5.35
2022-10-26T08:56:52.689Z,4.90
2022-10-26T08:57:55.287Z,4.82
2022-10-26T08:59:03.135Z,4.90
2022-10-26T09:00:15.630Z,4.87
2022-10-26T09:01:18.390Z,5.85
2022-10-26T09:02:21.286Z,5.00
2022-10-26T09:03:24.349Z,4.68
2022-10-26T09:04:32.284Z,4.70
2022-10-26T09:05:48.910Z,4.88
2022-10-26T09:07:07.561Z,4.38
2022-10-26T09:08:22.292Z,4.35
2022-10-26T09:09:27.544Z,5.20
2022-10-26T09:10:37.312Z,4.72
2022-10-26T09:11:48.444Z,4.83
2022-10-26T09:13:14.808Z,4.72
2022-10-26T09:14:21.580Z,6.45
2022-10-26T09:15:23.442Z,5.40
2022-10-26T09:16:48.473Z,4.53
2022-10-26T09:18:14.100Z,4.80
2022-10-26T09:19:55.783Z,4.45
2022-10-26T09:21:24.865Z,4.43
2022-10-26T09:23:10.648Z,4.32
2022-10-26T09:24:26.773Z,6.03
2022-10-26T09:26:01.983Z,4.63
2022-10-26T09:27:21.399Z,5.07
2022-10-26T09:28:23.786Z,5.70
2022-10-26T09:29:39.913Z,5.78
2022-10-26T09:30:45.088Z,4.15
2022-10-26T09:31:51.089Z,3.83
2022-10-26T09:33:15.441Z,4.00
2022-10-26T09:34:29.145Z,4.43
2022-10-26T09:35:50.458Z,4.40
2022-10-26T09:36:54.822Z,4.55
2022-10-26T09:38:30.563Z,3.80
2022-10-26T09:39:42.060Z,3.85
2022-10-26T09:40:53.337Z,3.83
2022-10-26T09:42:04.784Z,3.92
2022-10-26T09:43:49.649Z,4.30
2022-10-26T09:45:41.661Z,4.10
2022-10-26T09:46:53.223Z,3.75
2022-10-26T09:48:02.672Z,3.72
2022-10-26T09:49:11.006Z,3.97
2022-10-26T09:50:23.452Z,5.07
2022-10-26T09:51:27.168Z,4.47
2022-10-26T09:52:29.134Z,3.55
2022-10-26T09:53:31.524Z,3.60
2022-10-26T09:54:35.173Z,3.90
2022-10-26T09:55:48.141Z,4.57
2022-10-26T09:56:56.873Z,4.35
2022-10-26T09:58:02.482Z,4.60
2022-10-26T09:59:06.056Z,4.30
2022-10-26T10:00:16.969Z,3.22
2022-10-26T10:01:27.709Z,3.80
2022-10-26T10:02:34.942Z,3.83
2022-10-26T10:03:36.760Z,3.55
2022-10-26T10:04:46.946Z,3.60
2022-10-26T10:05:51.619Z,3.50
2022-10-26T10:07:03.299Z,3.40
2022-10-26T10:08:20.056Z,3.10
2022-10-26T10:09:24.299Z,3.88
2022-10-26T10:10:26.224Z,3.53
2022-10-26T10:11:38.991Z,3.50
2022-10-26T10:12:41.010Z,3.45
2022-10-26T10:13:44.838Z,3.40
2022-10-26T10:14:59.210Z,4.65
2022-10-26T10:16:13.636Z,4.53
2022-10-26T10:17:23.479Z,3.80
2022-10-26T10:18:25.470Z,4.20
2022-10-26T10:19:35.630Z,4.30
2022-10-26T10:20:37.419Z,3.88
2022-10-26T10:21:50.558Z,4.97
2022-10-26T10:23:03.832Z,3.55
2022-10-26T10:28:39.511Z,4.18
2022-10-26T10:33:32.731Z,2.92
2022-10-26T10:34:36.186Z,4.65
2022-10-26T10:35:47.237Z,3.60
2022-10-26T10:36:55.388Z,3.13
2022-10-26T10:38:04.069Z,4.22
2022-10-26T10:39:50.021Z,3.33
2022-10-26T10:41:15.908Z,3.63
2022-10-26T10:42:24.072Z,3.97
2022-10-26T10:43:35.278Z,3.63
2022-10-26T10:44:43.398Z,4.15
2022-10-26T10:46:23.041Z,3.70
2022-10-26T10:48:18.950Z,3.08
2022-10-26T10:49:35.055Z,4.53
2022-10-26T10:51:03.441Z,3.20
2022-10-26T10:52:06.619Z,3.90
2022-10-26T10:54:07.372Z,3.85
2022-10-26T10:55:21.069Z,5.65
2022-10-26T10:56:52.149Z,3.37
2022-10-26T10:58:17.102Z,3.88
2022-10-26T10:59:59.442Z,2.83
2022-10-26T11:01:10.230Z,3.22
2022-10-26T11:02:38.989Z,5.88
2022-10-26T11:04:37.877Z,3.30
2022-10-26T11:06:31.873Z,4.45
2022-10-26T11:08:13.146Z,3.63
2022-10-26T11:09:28.533Z,3.65
2022-10-26T11:11:01.935Z,3.58
2022-10-26T11:12:31.630Z,3.37
2022-10-26T11:13:47.380Z,5.65
2022-10-26T11:15:07.867Z,4.63
2022-10-26T11:16:22.425Z,4.05
2022-10-26T11:17:37.872Z,4.38
2022-10-26T11:19:04.671Z,4.88
2022-10-26T11:20:49.640Z,3.58
2022-10-26T11:22:17.269Z,5.07
2022-10-26T11:24:24.464Z,4.50
2022-10-26T11:25:35.330Z,3.97
2022-10-26T11:27:02.483Z,3.53
2022-10-26T11:28:46.648Z,4.57
2022-10-26T11:30:25.326Z,3.50
2022-10-26T11:31:59.864Z,4.25
2022-10-26T11:33:31.400Z,3.30
2022-10-26T11:35:12.976Z,3.60
2022-10-26T11:36:38.763Z,3.95
2022-10-26T11:37:56.541Z,3.70
2022-10-26T11:40:00.308Z,3.28
2022-10-26T11:41:21.868Z,4.57
2022-10-26T11:44:53.011Z,4.88
2022-10-26T11:46:16.651Z,4.15
2022-10-26T11:50:11.209Z,3.58
2022-10-26T11:51:45.599Z,4.13
2022-10-26T11:53:40.559Z,3.42
2022-10-26T11:54:58.662Z,4.65
2022-10-26T11:56:57.194Z,4.05
2022-10-26T11:58:03.125Z,3.35
2022-10-26T11:59:11.860Z,3.07
2022-10-26T12:01:58.740Z,3.60
2022-10-26T12:03:15.413Z,4.07
2022-10-26T12:04:30.974Z,4.15
2022-10-26T12:05:49.759Z,3.22
2022-10-26T12:06:56.834Z,2.95
2022-10-26T12:08:20.627Z,5.03
2022-10-26T12:09:34.827Z,3.60
2022-10-26T12:11:04.279Z,3.33
2022-10-26T12:12:20.296Z,3.00
2022-10-26T12:13:40.698Z,3.75
2022-10-26T12:14:53.346Z,3.35
2022-10-26T12:16:03.905Z,3.42
2022-10-26T12:17:17.686Z,2.70
2022-10-26T12:18:53.975Z,3.17
2022-10-26T12:20:07.846Z,3.00
2022-10-26T12:21:11.907Z,3.80
2022-10-26T12:22:17.299Z,3.90
2022-10-26T12:23:33.785Z,3.00
2022-10-26T12:24:46.143Z,2.43
2022-10-26T12:25:48.333Z,2.83
2022-10-26T12:27:00.169Z,2.17
2022-10-26T12:28:02.475Z,3.28
2022-10-26T12:29:09.920Z,3.75
2022-10-26T12:30:42.577Z,2.25
2022-10-26T12:31:47.358Z,2.97
2022-10-26T12:32:56.095Z,2.88
2022-10-26T12:34:22.193Z,2.30
2022-10-26T12:35:43.829Z,2.20
2022-10-26T12:36:55.705Z,4.03
2022-10-26T12:37:59.236Z,3.65
2022-10-26T12:39:02.530Z,4.30
2022-10-26T12:40:35.350Z,3.60
2022-10-26T12:41:40.293Z,3.13
2022-10-26T12:42:43.678Z,4.68
2022-10-26T12:43:46.140Z,3.00
2022-10-26T12:44:56.146Z,3.05
2022-10-26T12:46:15.667Z,3.47
2022-10-26T12:47:49.923Z,4.30
2022-10-26T12:48:54.067Z,3.03
2022-10-26T12:50:08.422Z,3.35
2022-10-26T12:51:22.851Z,3.90
2022-10-26T12:52:35.185Z,3.00
2022-10-26T12:53:39.167Z,4.45
2022-10-26T12:55:08.853Z,5.85
2022-10-26T12:56:20.073Z,4.43
2022-10-26T12:57:42.617Z,5.03
2022-10-26T12:59:15.466Z,2.90
2022-10-26T13:00:23.657Z,4.70
2022-10-26T13:01:53.357Z,3.30
2022-10-26T13:03:27.421Z,3.35
2022-10-26T13:05:01.144Z,2.35
2022-10-26T13:06:15.555Z,2.45
2022-10-26T13:07:28.373Z,4.13
2022-10-26T13:08:57.823Z,6.40
2022-10-26T13:10:24.450Z,3.03
2022-10-26T13:11:33.894Z,3.20
2022-10-26T13:15:05.575Z,3.58
2022-10-26T13:16:26.464Z,2.10
2022-10-26T13:17:48.148Z,3.17
2022-10-26T13:21:43.210Z,4.55
2022-10-26T13:22:55.769Z,3.42
2022-10-26T13:24:46.079Z,3.25
2022-10-26T13:26:38.348Z,2.70
2022-10-26T13:28:26.737Z,3.70
2022-10-26T13:30:04.702Z,2.83
2022-10-26T13:31:12.208Z,3.28
2022-10-26T13:32:14.296Z,3.17
2022-10-26T13:33:22.201Z,4.47
2022-10-26T13:34:30.194Z,2.80
2022-10-26T13:35:35.119Z,2.83
2022-10-26T13:36:51.846Z,3.35
2022-10-26T13:37:57.531Z,4.05
2022-10-26T13:39:04.849Z,3.78
2022-10-26T13:40:07.615Z,3.75
2022-10-26T13:41:35.983Z,3.25
2022-10-26T13:42:47.222Z,2.63
2022-10-26T13:43:50.485Z,3.23
2022-10-26T13:44:54.971Z,2.47
2022-10-26T13:45:59.883Z,4.43
2022-10-26T13:47:09.912Z,4.07
2022-10-26T13:48:20.233Z,4.28
2022-10-26T13:49:38.271Z,3.13
2022-10-26T13:50:54.990Z,4.50
2022-10-26T13:52:01.787Z,3.35
2022-10-26T13:53:41.279Z,4.65
2022-10-26T13:54:59.065Z,3.10
2022-10-26T13:56:27.430Z,4.57
2022-10-26T13:57:39.808Z,3.67
2022-10-26T13:58:57.457Z,4.35
2022-10-26T14:00:07.809Z,3.78
2022-10-26T14:01:25.627Z,4.78
2022-10-26T14:02:30.598Z,3.80
2022-10-26T14:03:32.421Z,2.53
2022-10-26T14:04:34.575Z,3.60
2022-10-26T14:05:43.597Z,2.92
2022-10-26T14:06:52.823Z,2.78
2022-10-26T14:07:58.310Z,4.00
2022-10-26T14:09:06.956Z,3.17
2022-10-26T14:10:25.486Z,3.08
2022-10-26T14:11:47.997Z,3.03
2022-10-26T14:12:51.296Z,3.15
2022-10-26T14:13:54.183Z,2.65
2022-10-26T14:15:03.960Z,3.20
2022-10-26T14:16:10.829Z,2.50
2022-10-26T14:17:26.157Z,4.88
2022-10-26T14:18:31.595Z,2.72
2022-10-26T14:19:38.553Z,3.07
2022-10-26T14:20:40.385Z,3.30
2022-10-26T14:21:43.236Z,3.17
2022-10-26T14:22:45.623Z,2.90
2022-10-26T14:23:49.729Z,2.30
2022-10-26T14:24:57.360Z,2.58
2022-10-26T14:25:59.599Z,3.20
2022-10-26T14:27:01.717Z,2.00
2022-10-26T14:28:20.207Z,2.20
2022-10-26T14:29:24.642Z,4.40
2022-10-26T14:30:32.679Z,3.17
2022-10-26T14:31:35.703Z,4.40
2022-10-26T14:32:37.670Z,2.47
2022-10-26T14:33:39.541Z,2.58
2022-10-26T14:34:41.409Z,2.70
2022-10-26T14:35:43.377Z,2.50
2022-10-26T14:36:50.234Z,2.53
2022-10-26T14:38:02.820Z,1.85
2022-10-26T14:39:09.460Z,2.45
2022-10-26T14:40:18.178Z,1.95
2022-10-26T14:41:23.708Z,2.33
2022-10-26T14:42:32.206Z,2.70
2022-10-26T14:43:34.348Z,2.00
2022-10-26T14:44:37.488Z,1.77
2022-10-26T14:45:55.102Z,2.70
2022-10-26T14:46:57.134Z,2.10
2022-10-26T14:48:00.039Z,2.65
2022-10-26T14:49:02.866Z,2.00
2022-10-26T14:50:05.031Z,2.40
2022-10-26T14:51:23.929Z,2.30
2022-10-26T14:52:32.901Z,2.73
2022-10-26T14:53:38.816Z,2.92
2022-10-26T14:54:40.997Z,1.80
2022-10-26T14:55:52.961Z,2.25
2022-10-26T14:56:55.453Z,2.63
2022-10-26T14:58:14.092Z,1.75
2022-10-26T14:59:25.779Z,3.40
2022-10-26T15:00:33.422Z,2.70
2022-10-26T15:01:49.096Z,2.70
2022-10-26T15:04:05.071Z,2.77
2022-10-26T15:05:35.761Z,1.80
2022-10-26T15:06:43.433Z,1.92
2022-10-26T15:07:45.806Z,1.77
2022-10-26T15:09:03.379Z,2.50
2022-10-26T15:10:06.014Z,2.30
2022-10-26T15:11:08.509Z,2.10
2022-10-26T15:12:22.133Z,2.75
2022-10-26T15:13:24.951Z,2.17
2022-10-26T15:14:26.867Z,2.42
2022-10-26T15:15:28.717Z,2.53
2022-10-26T15:16:34.915Z,2.00
2022-10-26T15:17:41.532Z,2.58
2022-10-26T15:18:45.695Z,2.35
2022-10-26T15:19:47.721Z,2.83
2022-10-26T15:20:51.099Z,1.55
2022-10-26T15:21:54.011Z,2.60
2022-10-26T15:22:58.303Z,2.60
2022-10-26T15:24:01.180Z,2.45
2022-10-26T15:25:05.500Z,2.92
2022-10-26T15:26:12.084Z,1.70
2022-10-26T15:27:16.930Z,1.90
2022-10-26T15:28:29.055Z,2.25
2022-10-26T15:29:42.967Z,2.42
2022-10-26T15:31:04.842Z,3.08
2022-10-26T15:32:18.649Z,3.22
2022-10-26T15:33:22.178Z,1.77
2022-10-26T15:34:24.229Z,1.58
2022-10-26T15:35:31.649Z,2.22
2022-10-26T15:36:35.833Z,3.38
2022-10-26T15:37:38.692Z,3.00
2022-10-26T15:38:41.091Z,1.95
2022-10-26T15:39:43.055Z,2.03
2022-10-26T15:40:45.023Z,3.28
2022-10-26T15:41:48.000Z,3.75
2022-10-26T15:42:53.002Z,2.42
2022-10-26T15:43:57.085Z,2.70